Cirencester, United Kingdom
Current Conditions -  °F | °C
As of 7:28 PM on Friday 21 Nov 2014 (Local Time) from EGVA Reporting Station
Haze Haze  
Wind Chill: 41°   Ceiling: 600
Heat Index: 45°   Visibility: 3mi
Dew Point: 45°   Wind: 7mph
Humidity: 100%   Direction: 80°E
Pressure: 29.9"   Gusts: NA
Location:  51.72°N, 1.97°W
Report Text: EGVA 211928Z AUTO 08006KT 4800 R27/1300 BR OVC006 07/07 A2990 RMK AO2 $
Loading
Personal Weather Stations






























Interactive Weather Map New forecast layout! Learn more

10-Day Weather Forecast

Advertisements
Track Severe Weather on mobile